sensor_id;sensor_type;location;lat;lon;timestamp;P1;durP1;ratioP1;P2;durP2;ratioP2
76939;SDS011;65885;55.848;35.916;2023-01-24T00:00:33;5.07;;;2.30;;
76939;SDS011;65885;55.848;35.916;2023-01-24T00:03:02;5.38;;;2.20;;
76939;SDS011;65885;55.848;35.916;2023-01-24T00:05:32;4.13;;;2.55;;
76939;SDS011;65885;55.848;35.916;2023-01-24T00:08:00;6.05;;;2.42;;
76939;SDS011;65885;55.848;35.916;2023-01-24T00:10:27;4.53;;;2.35;;
76939;SDS011;65885;55.848;35.916;2023-01-24T00:12:55;4.45;;;2.33;;
76939;SDS011;65885;55.848;35.916;2023-01-24T00:15:22;7.63;;;2.90;;
76939;SDS011;65885;55.848;35.916;2023-01-24T00:17:49;4.45;;;2.08;;
76939;SDS011;65885;55.848;35.916;2023-01-24T00:20:18;5.38;;;2.78;;
76939;SDS011;65885;55.848;35.916;2023-01-24T00:22:45;5.38;;;2.75;;
76939;SDS011;65885;55.848;35.916;2023-01-24T00:25:13;4.00;;;2.28;;
76939;SDS011;65885;55.848;35.916;2023-01-24T00:27:40;6.15;;;3.25;;
76939;SDS011;65885;55.848;35.916;2023-01-24T00:30:08;5.32;;;2.38;;
76939;SDS011;65885;55.848;35.916;2023-01-24T00:32:36;6.72;;;2.50;;
76939;SDS011;65885;55.848;35.916;2023-01-24T00:35:03;4.30;;;2.40;;
76939;SDS011;65885;55.848;35.916;2023-01-24T00:37:33;3.80;;;2.17;;
76939;SDS011;65885;55.848;35.916;2023-01-24T00:40:00;6.07;;;2.50;;
76939;SDS011;65885;55.848;35.916;2023-01-24T00:42:29;3.97;;;1.90;;
76939;SDS011;65885;55.848;35.916;2023-01-24T00:44:56;6.03;;;2.95;;
76939;SDS011;65885;55.848;35.916;2023-01-24T00:47:24;6.20;;;2.35;;
76939;SDS011;65885;55.848;35.916;2023-01-24T00:49:51;4.85;;;1.92;;
76939;SDS011;65885;55.848;35.916;2023-01-24T00:52:18;4.50;;;2.33;;
76939;SDS011;65885;55.848;35.916;2023-01-24T00:54:47;5.50;;;2.40;;
76939;SDS011;65885;55.848;35.916;2023-01-24T00:57:14;4.60;;;2.58;;
76939;SDS011;65885;55.848;35.916;2023-01-24T00:59:41;4.57;;;2.33;;
76939;SDS011;65885;55.848;35.916;2023-01-24T01:02:09;6.22;;;2.72;;
76939;SDS011;65885;55.848;35.916;2023-01-24T01:04:38;3.83;;;2.03;;
76939;SDS011;65885;55.848;35.916;2023-01-24T01:07:07;5.90;;;2.20;;
76939;SDS011;65885;55.848;35.916;2023-01-24T01:09:34;5.18;;;2.33;;
76939;SDS011;65885;55.848;35.916;2023-01-24T01:12:03;4.07;;;2.42;;
76939;SDS011;65885;55.848;35.916;2023-01-24T01:14:30;4.82;;;2.35;;
76939;SDS011;65885;55.848;35.916;2023-01-24T01:16:57;6.57;;;2.78;;
76939;SDS011;65885;55.848;35.916;2023-01-24T01:19:25;3.28;;;2.08;;
76939;SDS011;65885;55.848;35.916;2023-01-24T01:21:52;4.78;;;1.65;;
76939;SDS011;65885;55.848;35.916;2023-01-24T01:24:19;4.05;;;1.92;;
76939;SDS011;65885;55.848;35.916;2023-01-24T01:26:47;5.28;;;2.22;;
76939;SDS011;65885;55.848;35.916;2023-01-24T01:29:16;3.97;;;1.85;;
76939;SDS011;65885;55.848;35.916;2023-01-24T01:31:43;4.97;;;1.88;;
76939;SDS011;65885;55.848;35.916;2023-01-24T01:34:10;2.67;;;1.50;;
76939;SDS011;65885;55.848;35.916;2023-01-24T01:36:38;3.30;;;1.65;;
76939;SDS011;65885;55.848;35.916;2023-01-24T01:39:05;2.78;;;1.60;;
76939;SDS011;65885;55.848;35.916;2023-01-24T01:41:32;3.20;;;1.65;;
76939;SDS011;65885;55.848;35.916;2023-01-24T01:47:10;3.25;;;1.60;;
76939;SDS011;65885;55.848;35.916;2023-01-24T01:49:49;3.42;;;1.85;;
76939;SDS011;65885;55.848;35.916;2023-01-24T01:52:21;3.45;;;2.13;;
76939;SDS011;65885;55.848;35.916;2023-01-24T01:54:51;2.47;;;1.60;;
76939;SDS011;65885;55.848;35.916;2023-01-24T01:57:23;3.05;;;1.50;;
76939;SDS011;65885;55.848;35.916;2023-01-24T01:59:56;3.25;;;1.55;;
76939;SDS011;65885;55.848;35.916;2023-01-24T02:02:29;1.75;;;1.10;;
76939;SDS011;65885;55.848;35.916;2023-01-24T02:04:59;3.15;;;1.30;;
76939;SDS011;65885;55.848;35.916;2023-01-24T02:07:30;1.85;;;1.20;;
76939;SDS011;65885;55.848;35.916;2023-01-24T02:10:01;2.80;;;1.75;;
76939;SDS011;65885;55.848;35.916;2023-01-24T02:12:32;2.80;;;1.70;;
76939;SDS011;65885;55.848;35.916;2023-01-24T02:15:06;2.40;;;1.33;;
76939;SDS011;65885;55.848;35.916;2023-01-24T02:17:53;2.58;;;1.30;;
76939;SDS011;65885;55.848;35.916;2023-01-24T02:20:24;1.98;;;1.10;;
76939;SDS011;65885;55.848;35.916;2023-01-24T02:23:02;1.95;;;1.15;;
76939;SDS011;65885;55.848;35.916;2023-01-24T02:25:42;2.42;;;1.38;;
76939;SDS011;65885;55.848;35.916;2023-01-24T02:28:16;2.65;;;1.67;;
76939;SDS011;65885;55.848;35.916;2023-01-24T02:30:44;2.65;;;1.55;;
76939;SDS011;65885;55.848;35.916;2023-01-24T02:33:12;3.13;;;1.35;;
76939;SDS011;65885;55.848;35.916;2023-01-24T02:35:41;2.80;;;1.88;;
76939;SDS011;65885;55.848;35.916;2023-01-24T02:38:13;3.00;;;1.67;;
76939;SDS011;65885;55.848;35.916;2023-01-24T02:40:43;2.60;;;1.98;;
76939;SDS011;65885;55.848;35.916;2023-01-24T02:43:12;2.45;;;1.25;;
76939;SDS011;65885;55.848;35.916;2023-01-24T02:45:42;2.17;;;1.27;;
76939;SDS011;65885;55.848;35.916;2023-01-24T02:48:09;4.00;;;1.80;;
76939;SDS011;65885;55.848;35.916;2023-01-24T02:50:36;2.42;;;1.52;;
76939;SDS011;65885;55.848;35.916;2023-01-24T02:53:18;2.67;;;2.25;;
76939;SDS011;65885;55.848;35.916;2023-01-24T02:55:58;3.15;;;1.35;;
76939;SDS011;65885;55.848;35.916;2023-01-24T02:58:44;3.30;;;1.60;;
76939;SDS011;65885;55.848;35.916;2023-01-24T03:01:13;3.28;;;1.40;;
76939;SDS011;65885;55.848;35.916;2023-01-24T03:03:41;2.50;;;1.48;;
76939;SDS011;65885;55.848;35.916;2023-01-24T03:06:09;2.35;;;1.20;;
76939;SDS011;65885;55.848;35.916;2023-01-24T03:08:37;3.03;;;1.60;;
76939;SDS011;65885;55.848;35.916;2023-01-24T03:11:05;2.22;;;1.73;;
76939;SDS011;65885;55.848;35.916;2023-01-24T03:13:33;2.97;;;1.25;;
76939;SDS011;65885;55.848;35.916;2023-01-24T03:16:20;3.03;;;1.23;;
76939;SDS011;65885;55.848;35.916;2023-01-24T03:19:05;4.25;;;1.65;;
76939;SDS011;65885;55.848;35.916;2023-01-24T03:21:50;2.35;;;1.52;;
76939;SDS011;65885;55.848;35.916;2023-01-24T03:24:34;4.05;;;1.65;;
76939;SDS011;65885;55.848;35.916;2023-01-24T03:27:19;1.95;;;1.40;;
76939;SDS011;65885;55.848;35.916;2023-01-24T03:30:04;3.03;;;1.60;;
76939;SDS011;65885;55.848;35.916;2023-01-24T03:32:51;2.53;;;1.42;;
76939;SDS011;65885;55.848;35.916;2023-01-24T03:35:41;1.92;;;1.20;;
76939;SDS011;65885;55.848;35.916;2023-01-24T03:38:19;3.05;;;1.63;;
76939;SDS011;65885;55.848;35.916;2023-01-24T03:41:05;3.60;;;2.10;;
76939;SDS011;65885;55.848;35.916;2023-01-24T03:43:32;2.63;;;1.45;;
76939;SDS011;65885;55.848;35.916;2023-01-24T03:45:59;6.80;;;2.10;;
76939;SDS011;65885;55.848;35.916;2023-01-24T03:48:28;3.03;;;1.70;;
76939;SDS011;65885;55.848;35.916;2023-01-24T03:51:01;3.33;;;2.17;;
76939;SDS011;65885;55.848;35.916;2023-01-24T03:53:47;3.78;;;1.60;;
76939;SDS011;65885;55.848;35.916;2023-01-24T03:56:14;3.80;;;1.63;;
76939;SDS011;65885;55.848;35.916;2023-01-24T03:58:42;4.18;;;1.67;;
76939;SDS011;65885;55.848;35.916;2023-01-24T04:01:09;3.70;;;1.63;;
76939;SDS011;65885;55.848;35.916;2023-01-24T04:03:38;2.72;;;1.60;;
76939;SDS011;65885;55.848;35.916;2023-01-24T04:06:05;2.50;;;1.70;;
76939;SDS011;65885;55.848;35.916;2023-01-24T04:08:33;3.10;;;1.55;;
76939;SDS011;65885;55.848;35.916;2023-01-24T04:11:00;4.00;;;1.88;;
76939;SDS011;65885;55.848;35.916;2023-01-24T04:13:27;3.13;;;1.77;;
76939;SDS011;65885;55.848;35.916;2023-01-24T04:15:54;3.90;;;1.75;;
76939;SDS011;65885;55.848;35.916;2023-01-24T04:18:22;3.38;;;1.70;;
76939;SDS011;65885;55.848;35.916;2023-01-24T04:20:50;3.80;;;1.88;;
76939;SDS011;65885;55.848;35.916;2023-01-24T04:23:17;3.97;;;2.05;;
76939;SDS011;65885;55.848;35.916;2023-01-24T04:25:48;3.53;;;1.63;;
76939;SDS011;65885;55.848;35.916;2023-01-24T04:28:20;2.33;;;1.52;;
76939;SDS011;65885;55.848;35.916;2023-01-24T04:30:47;2.95;;;1.80;;
76939;SDS011;65885;55.848;35.916;2023-01-24T04:33:15;5.20;;;1.92;;
76939;SDS011;65885;55.848;35.916;2023-01-24T04:35:42;3.80;;;2.00;;
76939;SDS011;65885;55.848;35.916;2023-01-24T04:38:11;5.10;;;1.83;;
76939;SDS011;65885;55.848;35.916;2023-01-24T04:40:39;4.45;;;1.80;;
76939;SDS011;65885;55.848;35.916;2023-01-24T04:43:09;3.03;;;1.80;;
76939;SDS011;65885;55.848;35.916;2023-01-24T04:45:37;3.45;;;1.88;;
76939;SDS011;65885;55.848;35.916;2023-01-24T04:48:04;2.65;;;1.88;;
76939;SDS011;65885;55.848;35.916;2023-01-24T04:50:32;3.58;;;1.70;;
76939;SDS011;65885;55.848;35.916;2023-01-24T04:52:59;3.85;;;2.17;;
76939;SDS011;65885;55.848;35.916;2023-01-24T04:55:28;3.33;;;2.00;;
76939;SDS011;65885;55.848;35.916;2023-01-24T04:57:55;4.35;;;2.53;;
76939;SDS011;65885;55.848;35.916;2023-01-24T05:00:22;3.70;;;2.17;;
76939;SDS011;65885;55.848;35.916;2023-01-24T05:02:51;5.40;;;2.25;;
76939;SDS011;65885;55.848;35.916;2023-01-24T05:05:18;5.15;;;2.38;;
76939;SDS011;65885;55.848;35.916;2023-01-24T05:07:46;4.85;;;2.30;;
76939;SDS011;65885;55.848;35.916;2023-01-24T05:10:13;4.40;;;2.45;;
76939;SDS011;65885;55.848;35.916;2023-01-24T05:12:42;4.97;;;2.65;;
76939;SDS011;65885;55.848;35.916;2023-01-24T05:15:10;4.35;;;2.25;;
76939;SDS011;65885;55.848;35.916;2023-01-24T05:17:37;3.95;;;2.22;;
76939;SDS011;65885;55.848;35.916;2023-01-24T05:20:05;4.68;;;2.20;;
76939;SDS011;65885;55.848;35.916;2023-01-24T05:22:33;4.03;;;2.08;;
76939;SDS011;65885;55.848;35.916;2023-01-24T05:25:00;4.47;;;1.90;;
76939;SDS011;65885;55.848;35.916;2023-01-24T05:27:28;4.72;;;2.50;;
76939;SDS011;65885;55.848;35.916;2023-01-24T05:29:57;4.20;;;2.00;;
76939;SDS011;65885;55.848;35.916;2023-01-24T05:32:25;3.30;;;1.92;;
76939;SDS011;65885;55.848;35.916;2023-01-24T05:34:53;3.97;;;2.58;;
76939;SDS011;65885;55.848;35.916;2023-01-24T05:37:20;4.65;;;1.90;;
76939;SDS011;65885;55.848;35.916;2023-01-24T05:39:48;3.35;;;1.80;;
76939;SDS011;65885;55.848;35.916;2023-01-24T05:42:15;3.88;;;2.20;;
76939;SDS011;65885;55.848;35.916;2023-01-24T05:44:43;4.40;;;2.08;;
76939;SDS011;65885;55.848;35.916;2023-01-24T05:47:11;3.25;;;2.08;;
76939;SDS011;65885;55.848;35.916;2023-01-24T05:49:39;4.30;;;2.35;;
76939;SDS011;65885;55.848;35.916;2023-01-24T05:52:07;3.55;;;2.33;;
76939;SDS011;65885;55.848;35.916;2023-01-24T05:54:34;3.55;;;2.45;;
76939;SDS011;65885;55.848;35.916;2023-01-24T05:57:01;4.95;;;2.60;;
76939;SDS011;65885;55.848;35.916;2023-01-24T05:59:28;4.57;;;2.08;;
76939;SDS011;65885;55.848;35.916;2023-01-24T06:01:56;4.15;;;2.35;;
76939;SDS011;65885;55.848;35.916;2023-01-24T06:04:25;5.03;;;2.88;;
76939;SDS011;65885;55.848;35.916;2023-01-24T06:06:52;2.72;;;1.77;;
76939;SDS011;65885;55.848;35.916;2023-01-24T06:09:20;4.70;;;2.88;;
76939;SDS011;65885;55.848;35.916;2023-01-24T06:11:47;3.83;;;2.00;;
76939;SDS011;65885;55.848;35.916;2023-01-24T06:14:14;5.53;;;2.83;;
76939;SDS011;65885;55.848;35.916;2023-01-24T06:16:42;4.55;;;2.70;;
76939;SDS011;65885;55.848;35.916;2023-01-24T06:19:10;5.70;;;2.10;;
76939;SDS011;65885;55.848;35.916;2023-01-24T06:21:43;4.75;;;2.47;;
76939;SDS011;65885;55.848;35.916;2023-01-24T06:24:15;3.15;;;2.28;;
76939;SDS011;65885;55.848;35.916;2023-01-24T06:26:45;5.07;;;2.60;;
76939;SDS011;65885;55.848;35.916;2023-01-24T06:29:13;3.72;;;2.22;;
76939;SDS011;65885;55.848;35.916;2023-01-24T06:31:43;4.53;;;2.42;;
76939;SDS011;65885;55.848;35.916;2023-01-24T06:34:25;4.15;;;2.28;;
76939;SDS011;65885;55.848;35.916;2023-01-24T06:37:07;4.25;;;2.42;;
76939;SDS011;65885;55.848;35.916;2023-01-24T06:39:43;3.45;;;2.10;;
76939;SDS011;65885;55.848;35.916;2023-01-24T06:42:17;3.63;;;2.00;;
76939;SDS011;65885;55.848;35.916;2023-01-24T06:44:45;3.83;;;1.77;;
76939;SDS011;65885;55.848;35.916;2023-01-24T06:47:12;3.92;;;2.08;;
76939;SDS011;65885;55.848;35.916;2023-01-24T06:49:40;3.53;;;2.10;;
76939;SDS011;65885;55.848;35.916;2023-01-24T06:52:10;3.72;;;2.20;;
76939;SDS011;65885;55.848;35.916;2023-01-24T06:54:38;3.58;;;2.20;;
76939;SDS011;65885;55.848;35.916;2023-01-24T06:57:05;4.00;;;2.70;;
76939;SDS011;65885;55.848;35.916;2023-01-24T06:59:33;3.75;;;2.08;;
76939;SDS011;65885;55.848;35.916;2023-01-24T07:02:00;4.13;;;2.45;;
76939;SDS011;65885;55.848;35.916;2023-01-24T07:04:28;4.35;;;3.33;;
76939;SDS011;65885;55.848;35.916;2023-01-24T07:06:55;3.42;;;2.00;;
76939;SDS011;65885;55.848;35.916;2023-01-24T07:09:24;4.93;;;2.70;;
76939;SDS011;65885;55.848;35.916;2023-01-24T07:11:54;3.53;;;1.95;;
76939;SDS011;65885;55.848;35.916;2023-01-24T07:14:23;4.15;;;2.40;;
76939;SDS011;65885;55.848;35.916;2023-01-24T07:16:51;5.30;;;2.92;;
76939;SDS011;65885;55.848;35.916;2023-01-24T07:19:21;4.63;;;2.53;;
76939;SDS011;65885;55.848;35.916;2023-01-24T07:21:51;4.22;;;2.25;;
76939;SDS011;65885;55.848;35.916;2023-01-24T07:24:20;4.70;;;2.10;;
76939;SDS011;65885;55.848;35.916;2023-01-24T07:26:51;4.55;;;2.92;;
76939;SDS011;65885;55.848;35.916;2023-01-24T07:29:19;3.72;;;2.00;;
76939;SDS011;65885;55.848;35.916;2023-01-24T07:31:47;5.25;;;2.55;;
76939;SDS011;65885;55.848;35.916;2023-01-24T07:34:15;3.15;;;2.00;;
76939;SDS011;65885;55.848;35.916;2023-01-24T07:36:44;4.97;;;2.70;;
76939;SDS011;65885;55.848;35.916;2023-01-24T07:39:12;5.35;;;2.58;;
76939;SDS011;65885;55.848;35.916;2023-01-24T07:41:40;3.47;;;2.35;;
76939;SDS011;65885;55.848;35.916;2023-01-24T07:44:10;3.88;;;2.58;;
76939;SDS011;65885;55.848;35.916;2023-01-24T07:46:38;4.28;;;2.15;;
76939;SDS011;65885;55.848;35.916;2023-01-24T07:49:05;5.15;;;2.53;;
76939;SDS011;65885;55.848;35.916;2023-01-24T07:51:33;4.65;;;2.58;;
76939;SDS011;65885;55.848;35.916;2023-01-24T07:54:00;4.78;;;2.75;;
76939;SDS011;65885;55.848;35.916;2023-01-24T07:56:27;5.63;;;2.67;;
76939;SDS011;65885;55.848;35.916;2023-01-24T07:58:55;5.38;;;2.95;;
76939;SDS011;65885;55.848;35.916;2023-01-24T08:01:24;4.13;;;2.63;;
76939;SDS011;65885;55.848;35.916;2023-01-24T08:03:53;5.63;;;2.67;;
76939;SDS011;65885;55.848;35.916;2023-01-24T08:06:21;4.60;;;2.67;;
76939;SDS011;65885;55.848;35.916;2023-01-24T08:08:49;4.78;;;2.90;;
76939;SDS011;65885;55.848;35.916;2023-01-24T08:11:16;4.13;;;2.38;;
76939;SDS011;65885;55.848;35.916;2023-01-24T08:13:44;3.58;;;2.25;;
76939;SDS011;65885;55.848;35.916;2023-01-24T08:16:11;4.63;;;2.60;;
76939;SDS011;65885;55.848;35.916;2023-01-24T08:18:41;4.15;;;2.75;;
76939;SDS011;65885;55.848;35.916;2023-01-24T08:21:09;5.70;;;2.80;;
76939;SDS011;65885;55.848;35.916;2023-01-24T08:23:36;4.45;;;2.90;;
76939;SDS011;65885;55.848;35.916;2023-01-24T08:26:04;4.80;;;2.92;;
76939;SDS011;65885;55.848;35.916;2023-01-24T08:28:32;4.18;;;2.80;;
76939;SDS011;65885;55.848;35.916;2023-01-24T08:31:00;4.82;;;2.47;;
76939;SDS011;65885;55.848;35.916;2023-01-24T08:33:28;5.10;;;2.88;;
76939;SDS011;65885;55.848;35.916;2023-01-24T08:35:59;4.40;;;2.33;;
76939;SDS011;65885;55.848;35.916;2023-01-24T08:38:27;5.05;;;3.00;;
76939;SDS011;65885;55.848;35.916;2023-01-24T08:40:55;5.47;;;2.80;;
76939;SDS011;65885;55.848;35.916;2023-01-24T08:43:22;4.55;;;2.50;;
76939;SDS011;65885;55.848;35.916;2023-01-24T08:45:53;5.43;;;2.70;;
76939;SDS011;65885;55.848;35.916;2023-01-24T08:48:21;6.43;;;2.75;;
76939;SDS011;65885;55.848;35.916;2023-01-24T08:50:48;4.97;;;2.40;;
76939;SDS011;65885;55.848;35.916;2023-01-24T08:53:17;6.05;;;2.70;;
76939;SDS011;65885;55.848;35.916;2023-01-24T08:55:44;4.25;;;2.22;;
76939;SDS011;65885;55.848;35.916;2023-01-24T08:58:14;4.32;;;3.03;;
76939;SDS011;65885;55.848;35.916;2023-01-24T09:00:42;4.57;;;2.40;;
76939;SDS011;65885;55.848;35.916;2023-01-24T09:03:09;4.32;;;2.47;;
76939;SDS011;65885;55.848;35.916;2023-01-24T09:05:38;4.32;;;2.67;;
76939;SDS011;65885;55.848;35.916;2023-01-24T09:08:05;3.45;;;2.47;;
76939;SDS011;65885;55.848;35.916;2023-01-24T09:10:36;5.72;;;3.30;;
76939;SDS011;65885;55.848;35.916;2023-01-24T09:13:03;4.82;;;2.42;;
76939;SDS011;65885;55.848;35.916;2023-01-24T09:15:31;4.45;;;2.42;;
76939;SDS011;65885;55.848;35.916;2023-01-24T09:18:01;4.80;;;2.35;;
76939;SDS011;65885;55.848;35.916;2023-01-24T09:20:29;3.42;;;2.70;;
76939;SDS011;65885;55.848;35.916;2023-01-24T09:22:57;4.03;;;2.55;;
76939;SDS011;65885;55.848;35.916;2023-01-24T09:25:24;4.68;;;2.75;;
76939;SDS011;65885;55.848;35.916;2023-01-24T09:27:53;4.57;;;2.47;;
76939;SDS011;65885;55.848;35.916;2023-01-24T09:30:22;6.43;;;2.72;;
76939;SDS011;65885;55.848;35.916;2023-01-24T09:32:49;4.40;;;2.40;;
76939;SDS011;65885;55.848;35.916;2023-01-24T09:35:17;4.72;;;2.38;;
76939;SDS011;65885;55.848;35.916;2023-01-24T09:37:44;4.45;;;2.50;;
76939;SDS011;65885;55.848;35.916;2023-01-24T09:40:16;4.38;;;2.65;;
76939;SDS011;65885;55.848;35.916;2023-01-24T09:42:48;3.83;;;2.45;;
76939;SDS011;65885;55.848;35.916;2023-01-24T09:45:25;4.40;;;2.65;;
76939;SDS011;65885;55.848;35.916;2023-01-24T09:47:57;3.58;;;2.55;;
76939;SDS011;65885;55.848;35.916;2023-01-24T09:50:28;4.45;;;2.55;;
76939;SDS011;65885;55.848;35.916;2023-01-24T09:53:01;4.20;;;2.60;;
76939;SDS011;65885;55.848;35.916;2023-01-24T09:55:30;4.78;;;2.25;;
76939;SDS011;65885;55.848;35.916;2023-01-24T09:58:02;5.78;;;2.33;;
76939;SDS011;65885;55.848;35.916;2023-01-24T10:00:35;3.65;;;2.22;;
76939;SDS011;65885;55.848;35.916;2023-01-24T10:03:11;3.88;;;2.30;;
76939;SDS011;65885;55.848;35.916;2023-01-24T10:05:43;4.00;;;2.25;;
76939;SDS011;65885;55.848;35.916;2023-01-24T10:08:16;4.57;;;2.63;;
76939;SDS011;65885;55.848;35.916;2023-01-24T10:10:53;4.10;;;2.47;;
76939;SDS011;65885;55.848;35.916;2023-01-24T10:13:47;4.97;;;2.35;;
76939;SDS011;65885;55.848;35.916;2023-01-24T10:16:35;4.40;;;2.65;;
76939;SDS011;65885;55.848;35.916;2023-01-24T10:19:16;3.63;;;2.42;;
76939;SDS011;65885;55.848;35.916;2023-01-24T10:22:13;3.53;;;2.25;;
76939;SDS011;65885;55.848;35.916;2023-01-24T10:24:52;3.47;;;2.38;;
76939;SDS011;65885;55.848;35.916;2023-01-24T10:27:30;5.00;;;2.70;;
76939;SDS011;65885;55.848;35.916;2023-01-24T10:30:11;3.53;;;2.42;;
76939;SDS011;65885;55.848;35.916;2023-01-24T10:32:42;3.55;;;1.95;;
76939;SDS011;65885;55.848;35.916;2023-01-24T10:35:11;3.92;;;2.75;;
76939;SDS011;65885;55.848;35.916;2023-01-24T10:37:41;3.40;;;2.20;;
76939;SDS011;65885;55.848;35.916;2023-01-24T10:40:12;3.15;;;2.33;;
76939;SDS011;65885;55.848;35.916;2023-01-24T10:42:40;4.32;;;2.30;;
76939;SDS011;65885;55.848;35.916;2023-01-24T10:45:20;2.95;;;2.03;;
76939;SDS011;65885;55.848;35.916;2023-01-24T10:48:01;3.67;;;2.15;;
76939;SDS011;65885;55.848;35.916;2023-01-24T10:50:33;4.88;;;2.28;;
76939;SDS011;65885;55.848;35.916;2023-01-24T10:53:11;3.33;;;2.30;;
76939;SDS011;65885;55.848;35.916;2023-01-24T10:55:39;3.65;;;2.00;;
76939;SDS011;65885;55.848;35.916;2023-01-24T10:58:18;3.63;;;1.52;;
76939;SDS011;65885;55.848;35.916;2023-01-24T11:00:49;4.15;;;2.30;;
76939;SDS011;65885;55.848;35.916;2023-01-24T11:03:24;2.75;;;1.85;;
76939;SDS011;65885;55.848;35.916;2023-01-24T11:05:55;3.22;;;1.90;;
76939;SDS011;65885;55.848;35.916;2023-01-24T11:08:25;2.40;;;1.40;;
76939;SDS011;65885;55.848;35.916;2023-01-24T11:10:59;3.47;;;1.88;;
76939;SDS011;65885;55.848;35.916;2023-01-24T11:13:34;2.13;;;1.92;;
76939;SDS011;65885;55.848;35.916;2023-01-24T11:16:05;2.80;;;1.73;;
76939;SDS011;65885;55.848;35.916;2023-01-24T11:18:46;2.95;;;1.33;;
76939;SDS011;65885;55.848;35.916;2023-01-24T11:21:15;3.85;;;1.83;;
76939;SDS011;65885;55.848;35.916;2023-01-24T11:23:45;3.20;;;1.58;;
76939;SDS011;65885;55.848;35.916;2023-01-24T11:26:25;2.88;;;1.60;;
76939;SDS011;65885;55.848;35.916;2023-01-24T11:28:58;2.83;;;1.70;;
76939;SDS011;65885;55.848;35.916;2023-01-24T11:31:29;2.00;;;1.42;;
76939;SDS011;65885;55.848;35.916;2023-01-24T11:34:04;2.22;;;1.25;;
76939;SDS011;65885;55.848;35.916;2023-01-24T11:36:47;2.28;;;1.40;;
76939;SDS011;65885;55.848;35.916;2023-01-24T11:39:23;3.90;;;1.48;;
76939;SDS011;65885;55.848;35.916;2023-01-24T11:41:59;3.05;;;1.58;;
76939;SDS011;65885;55.848;35.916;2023-01-24T11:44:42;3.33;;;1.77;;
76939;SDS011;65885;55.848;35.916;2023-01-24T11:47:32;3.33;;;1.52;;
76939;SDS011;65885;55.848;35.916;2023-01-24T11:50:06;2.83;;;1.40;;
76939;SDS011;65885;55.848;35.916;2023-01-24T11:52:59;3.45;;;1.20;;
76939;SDS011;65885;55.848;35.916;2023-01-24T11:55:39;2.10;;;1.35;;
76939;SDS011;65885;55.848;35.916;2023-01-24T11:58:21;2.88;;;1.60;;
76939;SDS011;65885;55.848;35.916;2023-01-24T12:01:03;2.53;;;1.60;;
76939;SDS011;65885;55.848;35.916;2023-01-24T12:03:50;2.60;;;1.88;;
76939;SDS011;65885;55.848;35.916;2023-01-24T12:06:47;1.83;;;1.35;;
76939;SDS011;65885;55.848;35.916;2023-01-24T12:09:23;2.40;;;1.48;;
76939;SDS011;65885;55.848;35.916;2023-01-24T12:11:55;2.08;;;1.23;;
76939;SDS011;65885;55.848;35.916;2023-01-24T12:17:45;3.38;;;1.70;;
76939;SDS011;65885;55.848;35.916;2023-01-24T12:20:40;2.47;;;1.38;;
76939;SDS011;65885;55.848;35.916;2023-01-24T12:23:30;2.42;;;1.38;;
76939;SDS011;65885;55.848;35.916;2023-01-24T12:26:06;2.33;;;1.27;;
76939;SDS011;65885;55.848;35.916;2023-01-24T12:28:39;2.28;;;1.58;;
76939;SDS011;65885;55.848;35.916;2023-01-24T12:31:11;2.17;;;1.55;;
76939;SDS011;65885;55.848;35.916;2023-01-24T12:33:46;2.22;;;1.35;;
76939;SDS011;65885;55.848;35.916;2023-01-24T12:36:24;2.58;;;1.23;;
76939;SDS011;65885;55.848;35.916;2023-01-24T12:38:59;2.85;;;1.40;;
76939;SDS011;65885;55.848;35.916;2023-01-24T12:41:35;2.33;;;1.48;;
76939;SDS011;65885;55.848;35.916;2023-01-24T12:44:04;4.10;;;1.58;;
76939;SDS011;65885;55.848;35.916;2023-01-24T12:46:41;2.75;;;1.30;;
76939;SDS011;65885;55.848;35.916;2023-01-24T12:49:19;2.78;;;1.48;;
76939;SDS011;65885;55.848;35.916;2023-01-24T12:51:56;2.97;;;1.27;;
76939;SDS011;65885;55.848;35.916;2023-01-24T12:54:34;3.42;;;2.08;;
76939;SDS011;65885;55.848;35.916;2023-01-24T12:57:13;2.58;;;1.73;;
76939;SDS011;65885;55.848;35.916;2023-01-24T12:59:45;2.15;;;1.50;;
76939;SDS011;65885;55.848;35.916;2023-01-24T13:05:23;3.03;;;1.60;;
76939;SDS011;65885;55.848;35.916;2023-01-24T13:08:03;1.92;;;1.42;;
76939;SDS011;65885;55.848;35.916;2023-01-24T13:10:43;2.88;;;1.52;;
76939;SDS011;65885;55.848;35.916;2023-01-24T13:13:22;2.08;;;1.23;;
76939;SDS011;65885;55.848;35.916;2023-01-24T13:15:56;2.88;;;1.73;;
76939;SDS011;65885;55.848;35.916;2023-01-24T13:18:42;2.90;;;1.70;;
76939;SDS011;65885;55.848;35.916;2023-01-24T13:21:19;1.67;;;1.23;;
76939;SDS011;65885;55.848;35.916;2023-01-24T13:24:05;2.72;;;1.65;;
76939;SDS011;65885;55.848;35.916;2023-01-24T13:26:51;2.58;;;1.25;;
76939;SDS011;65885;55.848;35.916;2023-01-24T13:29:32;2.97;;;1.83;;
76939;SDS011;65885;55.848;35.916;2023-01-24T13:32:09;1.63;;;1.20;;
76939;SDS011;65885;55.848;35.916;2023-01-24T13:34:41;2.67;;;1.50;;
76939;SDS011;65885;55.848;35.916;2023-01-24T13:37:14;3.15;;;1.70;;
76939;SDS011;65885;55.848;35.916;2023-01-24T13:39:47;2.72;;;1.55;;
76939;SDS011;65885;55.848;35.916;2023-01-24T13:42:19;2.00;;;1.50;;
76939;SDS011;65885;55.848;35.916;2023-01-24T13:44:48;2.17;;;1.40;;
76939;SDS011;65885;55.848;35.916;2023-01-24T13:47:23;2.97;;;1.65;;
76939;SDS011;65885;55.848;35.916;2023-01-24T13:50:14;3.08;;;1.50;;
76939;SDS011;65885;55.848;35.916;2023-01-24T13:52:46;1.92;;;1.13;;
76939;SDS011;65885;55.848;35.916;2023-01-24T13:58:24;3.83;;;1.70;;
76939;SDS011;65885;55.848;35.916;2023-01-24T14:00:53;2.60;;;1.60;;
76939;SDS011;65885;55.848;35.916;2023-01-24T14:03:23;2.88;;;1.45;;
76939;SDS011;65885;55.848;35.916;2023-01-24T14:05:54;1.75;;;1.35;;
76939;SDS011;65885;55.848;35.916;2023-01-24T14:08:32;3.08;;;1.52;;
76939;SDS011;65885;55.848;35.916;2023-01-24T14:11:18;2.83;;;1.48;;
76939;SDS011;65885;55.848;35.916;2023-01-24T14:14:21;2.50;;;1.63;;
76939;SDS011;65885;55.848;35.916;2023-01-24T14:19:54;2.55;;;1.58;;
76939;SDS011;65885;55.848;35.916;2023-01-24T14:22:33;3.25;;;1.95;;
76939;SDS011;65885;55.848;35.916;2023-01-24T14:25:11;3.00;;;1.55;;
76939;SDS011;65885;55.848;35.916;2023-01-24T14:27:52;3.28;;;1.65;;
76939;SDS011;65885;55.848;35.916;2023-01-24T14:30:29;2.92;;;1.60;;
76939;SDS011;65885;55.848;35.916;2023-01-24T14:33:03;2.40;;;1.67;;
76939;SDS011;65885;55.848;35.916;2023-01-24T14:35:47;4.32;;;1.95;;
76939;SDS011;65885;55.848;35.916;2023-01-24T14:38:21;2.50;;;1.88;;
76939;SDS011;65885;55.848;35.916;2023-01-24T14:40:49;2.33;;;1.70;;
76939;SDS011;65885;55.848;35.916;2023-01-24T14:43:17;3.60;;;1.80;;
76939;SDS011;65885;55.848;35.916;2023-01-24T14:45:47;3.20;;;1.52;;
76939;SDS011;65885;55.848;35.916;2023-01-24T14:48:16;3.03;;;2.08;;
76939;SDS011;65885;55.848;35.916;2023-01-24T14:50:56;2.92;;;1.65;;
76939;SDS011;65885;55.848;35.916;2023-01-24T14:53:25;2.42;;;1.73;;
76939;SDS011;65885;55.848;35.916;2023-01-24T14:55:55;3.83;;;2.20;;
76939;SDS011;65885;55.848;35.916;2023-01-24T14:58:27;3.42;;;1.90;;
76939;SDS011;65885;55.848;35.916;2023-01-24T15:00:58;4.78;;;2.20;;
76939;SDS011;65885;55.848;35.916;2023-01-24T15:03:28;3.83;;;2.17;;
76939;SDS011;65885;55.848;35.916;2023-01-24T15:05:58;4.82;;;2.53;;
76939;SDS011;65885;55.848;35.916;2023-01-24T15:08:27;4.05;;;2.55;;
76939;SDS011;65885;55.848;35.916;2023-01-24T15:11:00;2.80;;;1.88;;
76939;SDS011;65885;55.848;35.916;2023-01-24T15:13:31;2.63;;;2.20;;
76939;SDS011;65885;55.848;35.916;2023-01-24T15:16:03;2.50;;;1.80;;